Time;durP1;ratioP1;P1;durP2;ratioP2;P2;SDS_P1;SDS_P2;PMS_P1;PMS_P2;Temp;Humidity;BMP_temperature;BMP_pressure;BME280_temperature;BME280_humidity;BME280_pressure;Samples;Min_cycle;Max_cycle;Signal;HPM_P1;HPM_P2
2022/04/13 00:01:45;;;;;;;5.90;2.53;;;10.80;99.90;;;;;;7325276;32;20423;-60
2022/04/13 00:05:48;;;;;;;12.35;2.53;;;10.80;99.90;;;;;;7329531;32;20176;-59
2022/04/13 00:09:50;;;;;;;9.52;2.78;;;10.80;99.90;;;;;;7326458;32;20115;-62
2022/04/13 00:13:52;;;;;;;5.55;2.58;;;10.80;99.90;;;;;;7324729;32;20127;-61
2022/04/13 00:17:53;;;;;;;5.97;2.55;;;10.70;99.90;;;;;;7323713;32;20327;-59
2022/04/13 00:21:56;;;;;;;4.87;2.37;;;10.70;99.90;;;;;;7321517;32;20601;-59
2022/04/13 00:25:58;;;;;;;7.75;2.22;;;10.70;99.90;;;;;;7323921;32;20134;-60
2022/04/13 00:30:00;;;;;;;7.62;2.25;;;10.70;99.90;;;;;;7323313;32;20137;-60
2022/04/13 00:34:02;;;;;;;4.55;2.40;;;10.60;99.90;;;;;;7312540;32;20409;-61
2022/04/13 00:38:04;;;;;;;6.22;2.80;;;10.60;99.90;;;;;;7321246;32;20693;-58
2022/04/13 00:42:07;;;;;;;5.37;2.55;;;10.50;99.90;;;;;;7321743;32;20360;-59
2022/04/13 00:46:09;;;;;;;5.35;2.20;;;10.50;99.90;;;;;;7322671;32;20133;-60
2022/04/13 00:50:11;;;;;;;6.85;2.33;;;10.50;99.90;;;;;;7321300;32;20243;-60
2022/04/13 00:54:13;;;;;;;6.00;2.50;;;10.40;99.90;;;;;;7322118;32;20108;-58
2022/04/13 00:58:16;;;;;;;7.47;2.90;;;10.40;99.90;;;;;;7321704;32;20184;-60
2022/04/13 01:02:19;;;;;;;5.65;2.42;;;10.30;99.90;;;;;;7319646;32;20134;-59
2022/04/13 01:06:21;;;;;;;7.45;2.60;;;10.30;99.90;;;;;;7318555;32;20567;-61
2022/04/13 01:10:25;;;;;;;4.40;2.30;;;10.30;99.90;;;;;;7319323;32;20550;-58
2022/04/13 01:14:27;;;;;;;4.22;2.45;;;10.30;99.90;;;;;;7319119;32;20111;-59
2022/04/13 01:18:28;;;;;;;7.20;2.87;;;10.30;99.90;;;;;;7319250;32;20321;-60
2022/04/13 01:22:30;;;;;;;6.68;2.50;;;10.30;99.90;;;;;;7317142;32;20562;-61
2022/04/13 01:26:32;;;;;;;6.25;2.65;;;10.20;99.90;;;;;;7320394;32;20241;-59
2022/04/13 01:30:33;;;;;;;7.40;2.87;;;10.20;99.90;;;;;;7325930;32;20591;-59
2022/04/13 01:34:35;;;;;;;5.65;2.10;;;10.20;99.90;;;;;;7318621;32;20166;-60
2022/04/13 01:38:37;;;;;;;6.12;2.65;;;10.20;99.90;;;;;;7316819;32;20163;-60
2022/04/13 01:42:38;;;;;;;6.40;2.83;;;10.20;99.90;;;;;;7316975;32;20306;-59
2022/04/13 01:46:40;;;;;;;5.50;2.42;;;10.30;99.90;;;;;;7319651;32;20256;-61
2022/04/13 01:50:42;;;;;;;9.52;2.78;;;10.20;99.90;;;;;;7317949;32;20197;-60
2022/04/13 01:54:43;;;;;;;8.15;2.65;;;10.10;99.90;;;;;;7313230;32;20228;-59
2022/04/13 01:58:45;;;;;;;4.50;2.40;;;10.10;99.90;;;;;;7321327;32;20111;-60
2022/04/13 02:02:47;;;;;;;6.45;2.30;;;10.10;99.90;;;;;;7318941;32;20134;-61
2022/04/13 02:06:49;;;;;;;6.50;2.62;;;10.00;99.90;;;;;;7319468;32;20165;-61
2022/04/13 02:10:51;;;;;;;8.45;2.92;;;9.90;99.90;;;;;;7320134;32;20103;-59
2022/04/13 02:14:53;;;;;;;6.78;2.40;;;9.80;99.90;;;;;;7313212;32;20829;-60
2022/04/13 02:18:54;;;;;;;6.55;2.72;;;9.80;99.90;;;;;;7316249;32;20111;-61
2022/04/13 02:22:56;;;;;;;5.60;2.20;;;9.70;99.90;;;;;;7320064;32;20713;-61
2022/04/13 02:26:58;;;;;;;8.23;3.28;;;9.60;99.90;;;;;;7320347;32;20115;-61
2022/04/13 02:31:00;;;;;;;7.90;2.85;;;9.60;99.90;;;;;;7312893;32;20519;-62
2022/04/13 02:35:01;;;;;;;4.75;2.30;;;9.50;99.90;;;;;;7317253;32;20107;-59
2022/04/13 02:39:03;;;;;;;6.20;2.60;;;9.40;99.90;;;;;;7314676;32;20108;-59
2022/04/13 02:43:05;;;;;;;6.85;3.22;;;9.30;99.90;;;;;;7314913;32;20425;-59
2022/04/13 02:47:06;;;;;;;4.78;2.83;;;9.30;99.90;;;;;;7310548;32;20650;-59
2022/04/13 02:51:08;;;;;;;5.00;2.40;;;9.20;99.90;;;;;;7305141;32;20943;-60
2022/04/13 02:55:11;;;;;;;3.58;2.20;;;9.10;99.90;;;;;;7307393;32;20134;-61
2022/04/13 02:59:13;;;;;;;5.68;2.78;;;9.10;99.90;;;;;;7310639;32;20211;-60
2022/04/13 03:03:16;;;;;;;5.20;2.67;;;9.00;99.90;;;;;;7315782;32;20562;-60
2022/04/13 03:07:18;;;;;;;4.82;2.33;;;9.00;99.90;;;;;;7316128;32;20162;-61
2022/04/13 03:11:20;;;;;;;5.00;2.58;;;9.00;99.90;;;;;;7317390;32;20764;-60
2022/04/13 03:15:23;;;;;;;6.15;2.47;;;8.90;99.90;;;;;;7317309;32;20118;-59
2022/04/13 03:19:25;;;;;;;5.12;2.37;;;8.90;99.90;;;;;;7319218;32;20104;-59
2022/04/13 03:23:27;;;;;;;6.20;2.62;;;8.90;99.90;;;;;;7316000;32;20100;-61
2022/04/13 03:27:28;;;;;;;7.68;2.83;;;8.90;99.90;;;;;;7316707;32;20134;-59
2022/04/13 03:31:30;;;;;;;4.72;2.75;;;8.80;99.90;;;;;;7317654;32;20115;-61
2022/04/13 03:35:32;;;;;;;9.07;2.53;;;8.80;99.90;;;;;;7318613;32;20238;-59
2022/04/13 03:39:33;;;;;;;7.43;2.92;;;8.70;99.90;;;;;;7316593;32;20195;-59
2022/04/13 03:43:35;;;;;;;6.22;2.40;;;8.70;99.90;;;;;;7317308;32;20135;-58
2022/04/13 03:47:38;;;;;;;6.45;2.70;;;8.80;99.90;;;;;;7325806;32;20107;-59
2022/04/13 03:51:40;;;;;;;6.57;2.58;;;8.80;99.90;;;;;;7317529;32;20243;-60
2022/04/13 03:55:41;;;;;;;4.95;2.08;;;8.80;99.90;;;;;;7317047;32;20134;-58
2022/04/13 03:59:43;;;;;;;5.18;2.15;;;8.70;99.90;;;;;;7324525;32;20194;-61
2022/04/13 04:03:45;;;;;;;6.30;2.70;;;8.80;99.90;;;;;;7321174;32;20139;-59
2022/04/13 04:07:46;;;;;;;4.05;2.22;;;8.80;99.90;;;;;;7317017;32;20215;-58
2022/04/13 04:11:48;;;;;;;5.10;2.35;;;8.80;99.90;;;;;;7320678;32;20150;-58
2022/04/13 04:15:50;;;;;;;4.28;2.33;;;8.80;99.90;;;;;;7322992;32;20305;-60
2022/04/13 04:19:51;;;;;;;11.12;2.58;;;8.80;99.90;;;;;;7327342;32;20114;-59
2022/04/13 04:23:53;;;;;;;8.05;2.40;;;8.80;99.90;;;;;;7324808;32;20111;-61
2022/04/13 04:27:55;;;;;;;3.90;2.53;;;8.80;99.90;;;;;;7321841;32;20108;-58
2022/04/13 04:31:59;;;;;;;4.82;2.40;;;8.80;99.90;;;;;;7319874;32;20173;-59
2022/04/13 04:36:01;;;;;;;5.82;2.42;;;8.80;99.90;;;;;;7319429;32;20135;-58
2022/04/13 04:40:03;;;;;;;6.75;2.72;;;8.80;99.90;;;;;;7323624;32;20781;-59
2022/04/13 04:44:05;;;;;;;9.63;2.90;;;8.80;99.90;;;;;;7320186;32;20111;-58
2022/04/13 04:48:07;;;;;;;5.85;2.53;;;8.80;99.90;;;;;;7318175;32;20139;-60
2022/04/13 04:52:09;;;;;;;5.75;2.50;;;8.80;99.90;;;;;;7322202;32;20190;-61
2022/04/13 04:56:10;;;;;;;5.40;2.30;;;8.80;99.90;;;;;;7323425;32;20142;-60
2022/04/13 05:00:15;;;;;;;6.37;2.78;;;8.80;99.90;;;;;;7308827;32;20547;-59
2022/04/13 05:04:17;;;;;;;5.07;2.20;;;8.80;99.90;;;;;;7316555;32;20578;-62
2022/04/13 05:08:20;;;;;;;12.07;2.53;;;8.90;99.90;;;;;;7309276;32;20291;-61
2022/04/13 05:12:22;;;;;;;10.38;2.67;;;9.00;99.90;;;;;;7325064;32;20136;-60
2022/04/13 05:16:24;;;;;;;6.30;2.78;;;9.10;99.90;;;;;;7316749;32;20674;-59
2022/04/13 05:20:26;;;;;;;6.25;2.80;;;9.10;99.90;;;;;;7319916;32;20562;-60
2022/04/13 05:24:27;;;;;;;9.52;2.92;;;9.30;99.90;;;;;;7330467;32;20463;-60
2022/04/13 05:28:29;;;;;;;9.68;2.65;;;9.40;99.90;;;;;;7306993;32;20107;-60
2022/04/13 05:32:31;;;;;;;7.40;3.22;;;9.50;99.90;;;;;;7316401;32;20119;-60
2022/04/13 05:36:33;;;;;;;6.85;3.33;;;9.60;99.90;;;;;;7311225;32;20516;-61
2022/04/13 05:40:35;;;;;;;7.20;2.70;;;9.60;99.90;;;;;;7318174;32;20231;-61
2022/04/13 05:44:36;;;;;;;9.00;2.65;;;9.80;99.90;;;;;;7321145;32;20108;-61
2022/04/13 05:48:38;;;;;;;5.37;2.45;;;9.90;99.90;;;;;;7325655;32;20485;-60
2022/04/13 05:52:41;;;;;;;17.58;4.68;;;10.00;99.90;;;;;;7314014;32;20115;-61
2022/04/13 05:56:43;;;;;;;7.47;3.10;;;10.10;99.90;;;;;;7311107;32;20512;-60
2022/04/13 06:00:44;;;;;;;7.53;3.22;;;10.40;99.90;;;;;;7314014;32;20210;-62
2022/04/13 06:04:46;;;;;;;5.97;2.92;;;10.60;99.90;;;;;;7317647;32;20142;-60
2022/04/13 06:08:48;;;;;;;9.60;2.62;;;10.70;99.90;;;;;;7316106;32;20579;-59
2022/04/13 06:12:49;;;;;;;12.25;2.83;;;10.90;99.90;;;;;;7317784;32;20139;-62
2022/04/13 06:16:51;;;;;;;11.07;3.35;;;11.10;99.90;;;;;;7308796;32;20135;-61
2022/04/13 06:20:53;;;;;;;9.25;2.85;;;11.20;99.90;;;;;;7312778;32;20540;-60
2022/04/13 06:24:54;;;;;;;8.93;2.65;;;11.20;99.90;;;;;;7309290;32;20213;-60
2022/04/13 06:28:56;;;;;;;10.05;2.85;;;11.50;99.90;;;;;;7311952;32;20095;-61
2022/04/13 06:32:58;;;;;;;6.80;2.53;;;11.60;99.90;;;;;;7317214;32;20119;-60
2022/04/13 06:37:00;;;;;;;5.87;3.05;;;11.80;99.90;;;;;;7318269;32;20194;-62
2022/04/13 06:41:01;;;;;;;4.55;2.75;;;12.00;99.90;;;;;;7307768;32;20550;-60
2022/04/13 06:45:10;;;;;;;9.63;2.95;;;12.10;99.90;;;;;;7316667;32;20130;-59
2022/04/13 06:49:11;;;;;;;7.15;2.40;;;12.20;99.90;;;;;;7313077;32;20217;-61
2022/04/13 06:53:14;;;;;;;10.05;2.70;;;12.50;99.90;;;;;;7310390;32;20525;-60
2022/04/13 06:57:16;;;;;;;7.55;2.50;;;12.60;99.90;;;;;;7311379;32;20342;-60
2022/04/13 07:01:18;;;;;;;13.70;4.43;;;12.80;99.90;;;;;;7313943;32;20111;-59
2022/04/13 07:05:20;;;;;;;12.23;5.37;;;13.10;99.90;;;;;;7310345;32;20194;-62
2022/04/13 07:09:21;;;;;;;10.88;5.22;;;13.30;99.90;;;;;;7315001;32;20111;-60
2022/04/13 07:13:23;;;;;;;13.75;5.07;;;13.60;99.90;;;;;;7310810;32;20103;-60
2022/04/13 07:17:25;;;;;;;17.83;6.20;;;13.80;99.90;;;;;;7307236;32;20139;-61
2022/04/13 07:21:26;;;;;;;13.10;6.28;;;14.10;99.90;;;;;;7311277;32;20504;-60
2022/04/13 07:25:48;;;;;;;17.02;6.45;;;14.40;99.90;;;;;;7312617;32;20233;-60
2022/04/13 07:29:50;;;;;;;14.18;6.70;;;14.70;99.90;;;;;;7316489;32;20123;-61
2022/04/13 07:33:51;;;;;;;12.07;6.87;;;14.90;99.90;;;;;;7323887;32;20126;-61
2022/04/13 07:37:53;;;;;;;11.75;5.68;;;15.20;99.90;;;;;;7322090;32;20617;-61
2022/04/13 07:41:55;;;;;;;13.07;6.28;;;15.60;99.90;;;;;;7308374;32;20233;-60
2022/04/13 07:45:56;;;;;;;14.07;6.62;;;16.00;99.90;;;;;;7315886;32;20240;-60
2022/04/13 07:49:59;;;;;;;13.35;6.50;;;16.50;99.90;;;;;;7316312;32;20126;-63
2022/04/13 07:54:03;;;;;;;13.35;5.82;;;16.80;99.90;;;;;;7314743;32;20772;-62
2022/04/13 07:58:22;;;;;;;15.90;6.62;;;17.20;99.90;;;;;;7313319;32;20208;-62
2022/04/13 08:02:24;;;;;;;14.23;6.75;;;17.40;99.90;;;;;;7311766;32;20756;-61
2022/04/13 08:06:26;;;;;;;14.82;6.30;;;17.60;99.90;;;;;;7316463;32;20218;-62
2022/04/13 08:10:27;;;;;;;10.90;6.53;;;18.00;99.90;;;;;;7315006;32;20212;-61
2022/04/13 08:14:29;;;;;;;18.17;6.47;;;18.20;99.90;;;;;;7319862;32;20178;-62
2022/04/13 08:18:31;;;;;;;14.00;6.85;;;18.70;99.90;;;;;;7319899;32;20737;-61
2022/04/13 08:22:33;;;;;;;14.65;6.05;;;19.10;99.90;;;;;;7313104;32;20225;-61
2022/04/13 08:26:35;;;;;;;14.93;6.53;;;19.20;99.90;;;;;;7317847;32;20141;-62
2022/04/13 08:30:36;;;;;;;15.82;6.75;;;19.60;99.90;;;;;;7314984;32;20111;-62
2022/04/13 08:34:41;;;;;;;15.80;5.95;;;19.70;99.90;;;;;;7316280;32;20218;-62
2022/04/13 08:38:43;;;;;;;16.17;6.07;;;19.80;99.90;;;;;;7300802;32;20312;-61
2022/04/13 08:43:03;;;;;;;13.95;5.60;;;20.10;99.90;;;;;;7315432;32;20229;-62
2022/04/13 08:47:11;;;;;;;16.20;5.85;;;20.50;99.90;;;;;;7319575;32;20129;-62
2022/04/13 08:51:18;;;;;;;15.57;5.87;;;20.80;99.90;;;;;;7318366;32;20122;-61
2022/04/13 08:55:22;;;;;;;17.62;5.95;;;21.50;99.90;;;;;;7315541;32;20661;-64
2022/04/13 08:59:38;;;;;;;10.80;5.25;;;21.70;99.90;;;;;;7312180;32;20119;-59
2022/04/13 09:03:46;;;;;;;16.77;5.53;;;22.20;99.90;;;;;;7314819;32;20559;-61
2022/04/13 09:08:21;;;;;;;13.45;5.53;;;22.30;99.90;;;;;;7317940;32;20203;-62
2022/04/13 09:12:24;;;;;;;13.23;4.80;;;22.90;99.50;;;;;;7319817;32;20107;-63
2022/04/13 09:16:26;;;;;;;20.23;6.12;;;22.80;99.90;;;;;;7318558;32;20539;-62
2022/04/13 09:20:28;;;;;;;18.00;5.65;;;23.10;99.90;;;;;;7319070;32;20112;-63
2022/04/13 09:24:31;;;;;;;12.35;4.93;;;23.70;99.90;;;;;;7315783;32;20158;-61
2022/04/13 09:28:34;;;;;;;16.42;5.35;;;23.80;94.90;;;;;;7319997;32;20178;-61
2022/04/13 09:32:35;;;;;;;15.50;5.80;;;23.10;96.60;;;;;;7312248;32;20217;-61
2022/04/13 09:36:37;;;;;;;14.23;5.62;;;22.20;98.90;;;;;;7316366;32;20108;-60
2022/04/13 09:40:41;;;;;;;11.68;5.70;;;21.60;99.90;;;;;;7318867;32;20546;-61
2022/04/13 09:44:57;;;;;;;13.70;6.25;;;21.10;99.90;;;;;;7320707;32;20122;-62
2022/04/13 09:49:12;;;;;;;13.32;6.15;;;20.80;99.90;;;;;;7318293;32;20111;-61
2022/04/13 09:53:15;;;;;;;11.60;4.95;;;20.70;99.90;;;;;;7316918;32;20235;-59
2022/04/13 09:57:24;;;;;;;15.73;6.43;;;21.10;99.90;;;;;;7318719;32;20216;-61
2022/04/13 10:01:26;;;;;;;18.17;6.37;;;21.50;99.90;;;;;;7316243;32;20261;-61
2022/04/13 10:05:30;;;;;;;24.10;6.32;;;22.70;99.90;;;;;;7313781;32;20809;-62
2022/04/13 10:09:32;;;;;;;15.48;6.60;;;22.50;99.90;;;;;;7318479;32;20126;-61
2022/04/13 10:13:38;;;;;;;15.68;6.30;;;22.70;99.90;;;;;;7313878;32;20141;-61
2022/04/13 10:17:40;;;;;;;17.70;6.85;;;23.20;99.90;;;;;;7317314;32;20108;-61
2022/04/13 10:21:45;;;;;;;16.85;6.90;;;23.70;98.00;;;;;;7318367;32;20111;-61
2022/04/13 10:25:47;;;;;;;14.63;6.03;;;24.40;96.90;;;;;;7311418;32;20141;-61
2022/04/13 10:29:49;;;;;;;17.42;7.18;;;24.60;95.10;;;;;;7315455;32;20112;-59
2022/04/13 10:33:55;;;;;;;16.20;6.82;;;24.20;92.20;;;;;;7314020;32;20134;-61
2022/04/13 10:37:57;;;;;;;15.13;6.80;;;24.70;95.10;;;;;;7313149;32;20178;-61
2022/04/13 10:42:03;;;;;;;20.33;6.97;;;24.90;94.10;;;;;;7317637;32;20230;-61
2022/04/13 10:46:05;;;;;;;21.48;6.45;;;24.90;89.70;;;;;;7317263;32;20226;-60
2022/04/13 10:50:08;;;;;;;13.93;5.95;;;24.10;92.40;;;;;;7311709;32;20277;-61
2022/04/13 10:54:13;;;;;;;17.90;5.95;;;24.10;93.20;;;;;;7316496;32;20104;-62
2022/04/13 10:58:31;;;;;;;13.43;5.55;;;23.70;95.40;;;;;;7319936;32;20491;-62
2022/04/13 11:02:42;;;;;;;16.08;5.32;;;23.50;94.30;;;;;;7315550;32;20133;-62
2022/04/13 11:06:46;;;;;;;14.55;5.20;;;23.60;95.50;;;;;;7316301;32;20123;-62
2022/04/13 11:10:49;;;;;;;11.93;4.80;;;23.50;94.80;;;;;;7317708;32;20119;-61
2022/04/13 11:14:53;;;;;;;14.02;4.03;;;23.20;95.00;;;;;;7317521;32;20512;-63
2022/04/13 11:19:00;;;;;;;9.70;4.22;;;22.50;97.10;;;;;;7315003;32;20140;-61
2022/04/13 11:23:12;;;;;;;10.18;4.28;;;22.20;99.10;;;;;;7312517;32;20211;-62
2022/04/13 11:27:15;;;;;;;17.67;4.70;;;21.70;99.90;;;;;;7308907;32;20228;-61
2022/04/13 11:31:17;;;;;;;9.55;4.05;;;21.20;99.90;;;;;;7319880;32;20421;-62
2022/04/13 11:35:26;;;;;;;14.23;4.70;;;21.30;99.90;;;;;;7321325;32;20133;-62
2022/04/13 11:39:53;;;;;;;15.25;4.37;;;21.50;99.90;;;;;;7317842;32;20107;-61
2022/04/13 11:44:15;;;;;;;10.17;3.87;;;21.50;99.90;;;;;;7312589;32;20603;-56
2022/04/13 11:48:35;;;;;;;8.85;3.65;;;21.10;99.90;;;;;;7312386;32;20522;-61
2022/04/13 11:52:48;;;;;;;9.55;3.60;;;20.90;99.90;;;;;;7315290;32;20167;-57
2022/04/13 11:56:52;;;;;;;8.25;3.42;;;21.00;99.90;;;;;;7313926;32;20436;-58
2022/04/13 12:00:58;;;;;;;8.13;3.60;;;20.80;99.90;;;;;;7313323;32;20115;-58
2022/04/13 12:05:06;;;;;;;;;;;20.80;99.90;;;;;;7312517;32;20112;-57
2022/04/13 12:09:09;;;;;;;7.40;3.03;;;20.90;99.90;;;;;;7313646;32;20125;-58
2022/04/13 12:13:11;;;;;;;9.15;3.45;;;21.00;99.90;;;;;;7315623;32;21892;-58
2022/04/13 12:17:15;;;;;;;11.23;3.92;;;20.70;99.90;;;;;;7319729;32;20176;-57
2022/04/13 12:21:21;;;;;;;7.65;3.58;;;20.70;99.90;;;;;;7319678;32;20225;-58
2022/04/13 12:25:22;;;;;;;9.57;3.20;;;20.50;99.90;;;;;;7320986;32;20139;-57
2022/04/13 12:29:29;;;;;;;9.73;3.40;;;20.50;99.90;;;;;;7321082;32;20584;-57
2022/04/13 12:33:31;;;;;;;9.50;3.27;;;20.40;99.90;;;;;;7318810;32;20115;-56
2022/04/13 12:37:33;;;;;;;9.18;3.10;;;20.40;99.90;;;;;;7319712;32;20241;-57
2022/04/13 12:41:35;;;;;;;8.20;3.45;;;20.40;99.90;;;;;;7319164;32;20282;-61
2022/04/13 12:45:37;;;;;;;9.82;3.00;;;20.10;99.90;;;;;;7314944;32;20157;-62
2022/04/13 12:49:38;;;;;;;6.18;3.12;;;20.30;99.90;;;;;;7319027;32;20613;-62
2022/04/13 12:54:00;;;;;;;8.73;3.78;;;20.40;99.90;;;;;;7318569;32;20194;-64
2022/04/13 12:58:01;;;;;;;13.30;4.72;;;19.90;99.90;;;;;;7319433;32;20138;-62
2022/04/13 13:02:03;;;;;;;9.80;5.00;;;19.70;99.90;;;;;;7318777;32;20119;-61
2022/04/13 13:06:11;;;;;;;13.25;4.70;;;19.80;99.90;;;;;;7321346;32;20653;-62
2022/04/13 13:10:14;;;;;;;8.50;4.07;;;20.10;99.90;;;;;;7319711;32;20112;-64
2022/04/13 13:14:16;;;;;;;7.93;3.78;;;20.10;99.90;;;;;;7321256;32;20681;-62
2022/04/13 13:18:21;;;;;;;9.45;3.85;;;20.00;99.90;;;;;;7317983;32;20162;-63
2022/04/13 13:22:24;;;;;;;6.45;2.83;;;20.00;99.90;;;;;;7319409;32;20161;-61
2022/04/13 13:26:26;;;;;;;10.48;3.92;;;19.90;99.90;;;;;;7318436;32;20199;-62
2022/04/13 13:30:29;;;;;;;10.48;4.32;;;19.70;99.90;;;;;;7316978;32;20130;-62
2022/04/13 13:34:30;;;;;;;11.20;3.75;;;19.70;99.90;;;;;;7324792;32;20869;-58
2022/04/13 13:38:33;;;;;;;10.57;4.82;;;19.70;99.90;;;;;;7314373;32;20195;-59
2022/04/13 13:42:43;;;;;;;10.52;4.30;;;19.60;99.90;;;;;;7319610;32;20233;-58
2022/04/13 13:46:45;;;;;;;11.32;4.75;;;19.70;99.90;;;;;;7315622;32;20142;-58
2022/04/13 13:50:48;;;;;;;8.80;4.12;;;19.60;99.90;;;;;;7315172;32;20146;-57
2022/04/13 13:54:50;;;;;;;10.98;5.07;;;19.80;99.90;;;;;;7318581;32;20453;-63
2022/04/13 13:58:51;;;;;;;10.50;4.97;;;19.70;99.90;;;;;;7317843;32;20111;-62
2022/04/13 14:02:54;;;;;;;11.48;5.12;;;19.70;99.90;;;;;;7315557;32;20821;-62
2022/04/13 14:06:55;;;;;;;9.45;4.05;;;19.80;99.90;;;;;;7317919;32;20585;-62
2022/04/13 14:10:58;;;;;;;12.65;6.65;;;19.70;99.90;;;;;;7317177;32;20241;-63
2022/04/13 14:14:59;;;;;;;12.57;6.10;;;19.80;99.90;;;;;;7317317;32;20597;-62
2022/04/13 14:19:01;;;;;;;13.93;6.10;;;19.60;99.90;;;;;;7317335;32;20111;-62
2022/04/13 14:23:03;;;;;;;15.68;6.07;;;19.70;99.90;;;;;;7316833;32;20108;-62
2022/04/13 14:27:06;;;;;;;13.07;7.93;;;19.40;99.90;;;;;;7313326;32;20268;-61
2022/04/13 14:31:07;;;;;;;15.25;8.05;;;19.50;99.90;;;;;;7316162;32;20130;-62
2022/04/13 14:35:09;;;;;;;14.50;8.50;;;19.20;99.90;;;;;;7317120;32;20107;-63
2022/04/13 14:39:11;;;;;;;17.42;9.05;;;19.10;99.90;;;;;;7317252;32;20154;-62
2022/04/13 14:43:13;;;;;;;15.18;8.20;;;19.10;99.90;;;;;;7316869;32;20254;-62
2022/04/13 14:47:14;;;;;;;13.88;8.23;;;19.10;99.90;;;;;;7311392;32;20814;-61
2022/04/13 14:51:16;;;;;;;17.45;9.25;;;19.00;99.90;;;;;;7315951;32;20198;-63
2022/04/13 14:55:18;;;;;;;14.45;9.77;;;19.10;99.90;;;;;;7315783;32;20343;-61
2022/04/13 14:59:20;;;;;;;12.70;9.60;;;19.10;99.90;;;;;;7312334;32;20195;-63
2022/04/13 15:03:21;;;;;;;13.10;10.75;;;19.00;99.90;;;;;;7313978;32;20793;-62
2022/04/13 15:07:23;;;;;;;16.15;10.90;;;19.00;99.90;;;;;;7314099;32;20099;-62
2022/04/13 15:11:25;;;;;;;17.15;10.80;;;19.10;99.90;;;;;;7316820;32;20547;-62
2022/04/13 15:15:26;;;;;;;13.10;10.82;;;19.20;99.90;;;;;;7313887;32;20274;-61
2022/04/13 15:19:28;;;;;;;13.95;9.75;;;18.90;99.90;;;;;;7308102;32;20471;-64
2022/04/13 15:23:33;;;;;;;17.67;12.20;;;18.70;99.90;;;;;;7306755;32;20112;-62
2022/04/13 15:27:40;;;;;;;13.90;9.57;;;18.60;99.90;;;;;;7312273;32;20155;-61
2022/04/13 15:31:42;;;;;;;;;;;18.70;99.90;;;;;;7308942;32;20187;-63
2022/04/13 15:35:44;;;;;;;15.48;9.57;;;18.90;99.90;;;;;;7309896;32;20022;-61
2022/04/13 15:39:45;;;;;;;14.32;9.65;;;18.90;99.90;;;;;;7309098;32;20130;-61
2022/04/13 15:43:47;;;;;;;12.88;8.32;;;18.80;99.90;;;;;;7309806;32;20136;-61
2022/04/13 15:47:49;;;;;;;10.75;7.45;;;18.70;99.90;;;;;;7314934;32;20235;-61
2022/04/13 15:51:51;;;;;;;13.00;7.68;;;18.70;99.90;;;;;;7318708;32;20459;-61
2022/04/13 15:55:54;;;;;;;8.25;5.60;;;18.60;99.90;;;;;;7318765;32;20211;-63
2022/04/13 15:59:55;;;;;;;11.07;6.93;;;18.90;99.90;;;;;;7313936;32;20766;-62
2022/04/13 16:03:57;;;;;;;15.10;8.75;;;18.70;99.90;;;;;;7321354;32;20195;-62
2022/04/13 16:07:59;;;;;;;16.55;8.65;;;18.40;99.90;;;;;;7321250;32;20184;-63
2022/04/13 16:12:00;;;;;;;12.90;8.23;;;18.40;99.90;;;;;;7323102;32;20563;-61
2022/04/13 16:16:02;;;;;;;14.02;10.13;;;18.20;99.90;;;;;;7320244;32;20134;-61
2022/04/13 16:20:05;;;;;;;15.00;9.32;;;18.10;99.90;;;;;;7318913;32;20116;-58
2022/04/13 16:24:06;;;;;;;15.63;11.02;;;18.00;99.90;;;;;;7321192;32;20224;-58
2022/04/13 16:28:11;;;;;;;15.02;11.40;;;18.00;99.90;;;;;;7320647;32;20143;-58
2022/04/13 16:32:14;;;;;;;14.45;10.63;;;18.00;99.90;;;;;;7325135;32;20224;-59
2022/04/13 16:36:15;;;;;;;17.17;12.37;;;17.90;99.90;;;;;;7324904;32;20219;-57
2022/04/13 16:40:17;;;;;;;16.75;12.07;;;17.80;99.90;;;;;;7325789;32;20194;-58
2022/04/13 16:44:19;;;;;;;15.77;11.88;;;17.70;99.90;;;;;;7321166;32;20260;-57
2022/04/13 16:48:21;;;;;;;12.75;9.98;;;17.50;99.90;;;;;;7321690;32;20136;-57
2022/04/13 16:52:22;;;;;;;15.15;11.27;;;17.50;99.90;;;;;;7328665;32;20235;-58
2022/04/13 16:56:24;;;;;;;15.23;10.73;;;17.70;99.90;;;;;;7326333;32;20122;-62
2022/04/13 17:00:26;;;;;;;13.15;10.50;;;17.60;99.90;;;;;;7324237;32;20223;-62
2022/04/13 17:04:27;;;;;;;14.98;10.80;;;17.50;99.90;;;;;;7313992;32;20456;-62
2022/04/13 17:08:29;;;;;;;17.65;11.00;;;17.50;99.90;;;;;;7316382;32;20130;-62
2022/04/13 17:12:36;;;;;;;13.45;9.40;;;17.30;99.90;;;;;;7316063;32;20162;-63
2022/04/13 17:16:40;;;;;;;15.05;9.57;;;17.20;99.90;;;;;;7294847;32;20488;-61
2022/04/13 17:20:41;;;;;;;13.18;9.90;;;17.00;99.90;;;;;;7328147;32;20134;-62
2022/04/13 17:24:44;;;;;;;12.65;8.80;;;16.90;99.90;;;;;;7321931;32;20491;-61
2022/04/13 17:28:46;;;;;;;12.55;8.70;;;16.80;99.90;;;;;;7321297;32;20107;-63
2022/04/13 17:32:48;;;;;;;11.95;9.07;;;16.80;99.90;;;;;;7317096;32;20570;-64
2022/04/13 17:36:49;;;;;;;12.95;9.13;;;16.70;99.90;;;;;;7319869;32;20165;-62
2022/04/13 17:40:54;;;;;;;14.40;8.68;;;16.60;99.90;;;;;;7298531;32;20131;-64
2022/04/13 17:44:56;;;;;;;14.87;8.13;;;16.60;99.90;;;;;;7306985;32;20230;-62
2022/04/13 17:48:58;;;;;;;13.13;7.70;;;16.60;99.90;;;;;;7320151;32;20444;-63
2022/04/13 17:53:00;;;;;;;11.55;6.75;;;16.50;99.90;;;;;;7320668;32;20202;-63
2022/04/13 17:57:02;;;;;;;12.15;6.60;;;16.40;99.90;;;;;;7315958;32;20185;-62
2022/04/13 18:01:05;;;;;;;9.30;6.47;;;16.30;99.90;;;;;;7318455;32;20112;-63
2022/04/13 18:05:08;;;;;;;13.55;7.50;;;16.10;99.90;;;;;;7320487;32;20303;-64
2022/04/13 18:09:12;;;;;;;12.75;7.60;;;16.00;99.90;;;;;;7317878;32;20494;-63
2022/04/13 18:13:14;;;;;;;14.75;8.23;;;15.80;99.90;;;;;;7296526;32;20145;-62
2022/04/13 18:17:16;;;;;;;11.38;7.18;;;15.70;99.90;;;;;;7321543;32;20107;-64
2022/04/13 18:21:24;;;;;;;15.25;8.10;;;15.80;99.90;;;;;;7304633;32;20649;-63
2022/04/13 18:25:26;;;;;;;12.52;7.07;;;15.60;99.90;;;;;;7317933;32;20107;-64
2022/04/13 18:29:29;;;;;;;14.48;8.18;;;15.50;99.90;;;;;;7319260;32;20214;-64
2022/04/13 18:33:38;;;;;;;12.93;7.57;;;15.40;99.90;;;;;;7317057;32;20530;-62
2022/04/13 18:37:40;;;;;;;14.32;8.40;;;15.40;99.90;;;;;;7316335;32;20131;-63
2022/04/13 18:41:42;;;;;;;14.87;7.87;;;15.40;99.90;;;;;;7318706;32;20475;-66
2022/04/13 18:45:44;;;;;;;15.45;10.15;;;15.30;99.90;;;;;;7310491;32;20110;-64
2022/04/13 18:49:51;;;;;;;18.37;9.40;;;15.30;99.90;;;;;;7317188;32;20919;-63
2022/04/13 18:53:53;;;;;;;15.98;9.13;;;15.30;99.90;;;;;;7319977;32;20546;-62
2022/04/13 18:57:54;;;;;;;19.30;8.82;;;15.20;99.90;;;;;;7319609;32;20467;-64
2022/04/13 19:01:56;;;;;;;18.80;9.18;;;15.20;99.90;;;;;;7322327;32;20794;-64
2022/04/13 19:05:58;;;;;;;15.95;8.57;;;15.10;99.90;;;;;;7319760;32;20462;-64
2022/04/13 19:10:02;;;;;;;15.50;8.02;;;15.00;99.90;;;;;;7311413;32;20780;-64
2022/04/13 19:14:03;;;;;;;17.37;7.80;;;14.90;99.90;;;;;;7320183;32;20118;-62
2022/04/13 19:18:07;;;;;;;12.10;6.72;;;14.80;99.90;;;;;;7318300;32;20111;-63
2022/04/13 19:22:08;;;;;;;16.15;6.70;;;14.70;99.90;;;;;;7302717;32;20297;-64
2022/04/13 19:26:10;;;;;;;13.35;5.80;;;14.80;99.90;;;;;;7322335;32;20827;-62
2022/04/13 19:30:12;;;;;;;9.52;6.15;;;14.80;99.90;;;;;;7318776;32;20218;-62
2022/04/13 19:34:14;;;;;;;13.85;5.68;;;14.80;99.90;;;;;;7319353;32;20115;-63
2022/04/13 19:38:16;;;;;;;12.02;4.95;;;14.80;99.90;;;;;;7322323;32;20111;-61
2022/04/13 19:42:34;;;;;;;12.15;4.78;;;14.60;99.90;;;;;;7323936;32;20135;-63
2022/04/13 19:46:35;;;;;;;9.45;4.78;;;14.60;99.90;;;;;;7323016;32;20205;-63
2022/04/13 19:50:37;;;;;;;9.73;4.45;;;14.50;99.90;;;;;;7320334;32;20336;-63
2022/04/13 19:54:39;;;;;;;11.30;4.70;;;14.40;99.90;;;;;;7322818;32;20260;-62
2022/04/13 19:58:40;;;;;;;12.30;4.65;;;14.30;99.90;;;;;;7323263;32;20186;-63
2022/04/13 20:02:43;;;;;;;11.60;5.15;;;14.30;99.90;;;;;;7323159;32;20459;-64
2022/04/13 20:06:44;;;;;;;8.90;3.70;;;14.30;99.90;;;;;;7324956;32;20860;-61
2022/04/13 20:10:46;;;;;;;8.20;3.70;;;14.30;99.90;;;;;;7307018;32;20162;-62
2022/04/13 20:14:48;;;;;;;7.68;3.10;;;14.30;99.90;;;;;;7309284;32;20130;-64
2022/04/13 20:18:51;;;;;;;7.62;2.95;;;14.20;99.90;;;;;;7319676;32;20266;-62
2022/04/13 20:22:53;;;;;;;5.15;2.40;;;14.10;99.90;;;;;;7330509;32;20138;-60
2022/04/13 20:26:55;;;;;;;5.18;2.50;;;14.10;99.90;;;;;;7317552;32;20121;-60
2022/04/13 20:30:56;;;;;;;5.15;2.42;;;14.10;99.90;;;;;;7321920;32;20223;-59
2022/04/13 20:34:58;;;;;;;10.32;2.67;;;14.10;99.90;;;;;;7315043;32;20318;-59
2022/04/13 20:39:00;;;;;;;4.82;1.95;;;14.00;99.90;;;;;;7320430;32;20130;-61
2022/04/13 20:43:02;;;;;;;6.93;2.10;;;14.10;99.90;;;;;;7322232;32;20133;-60
2022/04/13 20:47:05;;;;;;;5.47;1.70;;;14.00;99.90;;;;;;7322167;32;20378;-59
2022/04/13 20:51:07;;;;;;;6.05;1.90;;;14.00;99.90;;;;;;7306239;32;20329;-59
2022/04/13 20:55:09;;;;;;;7.30;1.98;;;13.90;99.90;;;;;;7319930;32;20417;-60
2022/04/13 20:59:11;;;;;;;4.07;1.90;;;13.90;99.90;;;;;;7320394;32;20530;-60